sensor_id;sensor_type;location;lat;lon;timestamp;pressure;altitude;pressure_sealevel;temperature;humidity
71772;BME280;59606;52.138;5.424;2023-02-11T00:00:41;103536.41;;;6.15;95.92
71772;BME280;59606;52.138;5.424;2023-02-11T00:03:07;103536.41;;;6.15;96.00
71772;BME280;59606;52.138;5.424;2023-02-11T00:05:34;103527.78;;;6.14;95.95
71772;BME280;59606;52.138;5.424;2023-02-11T00:08:00;103522.59;;;6.14;95.93
71772;BME280;59606;52.138;5.424;2023-02-11T00:10:27;103516.56;;;6.14;95.99
71772;BME280;59606;52.138;5.424;2023-02-11T00:12:53;103512.25;;;6.14;95.85
71772;BME280;59606;52.138;5.424;2023-02-11T00:15:20;103517.44;;;6.14;96.13
71772;BME280;59606;52.138;5.424;2023-02-11T00:17:46;103526.03;;;6.13;96.07
71772;BME280;59606;52.138;5.424;2023-02-11T00:20:13;103513.06;;;6.13;95.88
71772;BME280;59606;52.138;5.424;2023-02-11T00:22:40;103520.84;;;6.13;96.25
71772;BME280;59606;52.138;5.424;2023-02-11T00:25:06;103516.56;;;6.14;96.03
71772;BME280;59606;52.138;5.424;2023-02-11T00:27:33;103524.31;;;6.14;96.00
71772;BME280;59606;52.138;5.424;2023-02-11T00:30:01;103527.75;;;6.13;96.18
71772;BME280;59606;52.138;5.424;2023-02-11T00:32:28;103520.00;;;6.11;96.17
71772;BME280;59606;52.138;5.424;2023-02-11T00:34:54;103526.88;;;6.12;96.42
71772;BME280;59606;52.138;5.424;2023-02-11T00:37:21;103526.88;;;6.12;96.29
71772;BME280;59606;52.138;5.424;2023-02-11T00:39:48;103520.00;;;6.11;96.24
71772;BME280;59606;52.138;5.424;2023-02-11T00:42:15;103525.16;;;6.11;96.23
71772;BME280;59606;52.138;5.424;2023-02-11T00:44:42;103526.03;;;6.12;96.54
71772;BME280;59606;52.138;5.424;2023-02-11T00:47:08;103526.03;;;6.12;96.30
71772;BME280;59606;52.138;5.424;2023-02-11T00:49:35;103526.03;;;6.12;96.64
71772;BME280;59606;52.138;5.424;2023-02-11T00:52:02;103525.16;;;6.11;96.81
71772;BME280;59606;52.138;5.424;2023-02-11T00:54:29;103529.47;;;6.11;96.58
71772;BME280;59606;52.138;5.424;2023-02-11T00:56:55;103524.31;;;6.11;96.57
71772;BME280;59606;52.138;5.424;2023-02-11T00:59:21;103519.09;;;6.09;96.38
71772;BME280;59606;52.138;5.424;2023-02-11T01:01:48;103513.94;;;6.08;96.72
71772;BME280;59606;52.138;5.424;2023-02-11T01:04:14;103511.31;;;6.06;96.94
71772;BME280;59606;52.138;5.424;2023-02-11T01:06:41;103505.28;;;6.04;96.89
71772;BME280;59606;52.138;5.424;2023-02-11T01:09:07;103494.91;;;6.01;96.91
71772;BME280;59606;52.138;5.424;2023-02-11T01:11:34;103488.84;;;5.99;97.04
71772;BME280;59606;52.138;5.424;2023-02-11T01:14:01;103498.31;;;5.96;96.91
71772;BME280;59606;52.138;5.424;2023-02-11T01:16:27;103497.44;;;5.94;97.02
71772;BME280;59606;52.138;5.424;2023-02-11T01:18:54;103497.38;;;5.92;97.26
71772;BME280;59606;52.138;5.424;2023-02-11T01:21:21;103485.31;;;5.91;97.07
71772;BME280;59606;52.138;5.424;2023-02-11T01:23:47;103469.75;;;5.89;97.51
71772;BME280;59606;52.138;5.424;2023-02-11T01:26:13;103466.28;;;5.86;97.45
71772;BME280;59606;52.138;5.424;2023-02-11T01:28:40;103474.03;;;5.83;97.27
71772;BME280;59606;52.138;5.424;2023-02-11T01:31:06;103477.47;;;5.80;97.65
71772;BME280;59606;52.138;5.424;2023-02-11T01:33:33;103476.59;;;5.80;97.50
71772;BME280;59606;52.138;5.424;2023-02-11T01:36:01;103497.28;;;5.80;97.49
71772;BME280;59606;52.138;5.424;2023-02-11T01:38:28;103505.94;;;5.80;97.85
71772;BME280;59606;52.138;5.424;2023-02-11T01:40:57;103510.25;;;5.81;97.66
71772;BME280;59606;52.138;5.424;2023-02-11T01:43:26;103511.09;;;5.82;97.98
71772;BME280;59606;52.138;5.424;2023-02-11T01:46:01;103510.22;;;5.83;98.18
71772;BME280;59606;52.138;5.424;2023-02-11T01:48:38;103505.94;;;5.82;98.19
71772;BME280;59606;52.138;5.424;2023-02-11T01:51:24;103503.34;;;5.82;98.07
71772;BME280;59606;52.138;5.424;2023-02-11T01:53:52;103495.56;;;5.79;97.84
71772;BME280;59606;52.138;5.424;2023-02-11T01:56:42;103499.00;;;5.78;98.05
71772;BME280;59606;52.138;5.424;2023-02-11T01:59:33;103512.78;;;5.77;97.91
71772;BME280;59606;52.138;5.424;2023-02-11T02:02:07;103519.66;;;5.76;98.06
71772;BME280;59606;52.138;5.424;2023-02-11T02:04:42;103518.81;;;5.76;98.26
71772;BME280;59606;52.138;5.424;2023-02-11T02:07:15;103520.53;;;5.75;98.32
71772;BME280;59606;52.138;5.424;2023-02-11T02:09:47;103520.53;;;5.77;97.89
71772;BME280;59606;52.138;5.424;2023-02-11T02:12:14;103514.50;;;5.76;98.22
71772;BME280;59606;52.138;5.424;2023-02-11T02:14:41;103512.78;;;5.77;98.21
71772;BME280;59606;52.138;5.424;2023-02-11T02:17:27;103498.09;;;5.76;98.08
71772;BME280;59606;52.138;5.424;2023-02-11T02:34:01;103499.72;;;5.63;98.32
71772;BME280;59606;52.138;5.424;2023-02-11T02:36:36;103499.69;;;5.60;98.13
71772;BME280;59606;52.138;5.424;2023-02-11T02:39:19;103488.50;;;5.59;98.24
71772;BME280;59606;52.138;5.424;2023-02-11T02:41:47;103479.88;;;5.57;98.41
71772;BME280;59606;52.138;5.424;2023-02-11T02:44:17;103483.31;;;5.58;98.54
71772;BME280;59606;52.138;5.424;2023-02-11T02:46:44;103485.00;;;5.56;98.60
71772;BME280;59606;52.138;5.424;2023-02-11T02:49:12;103483.28;;;5.55;98.73
71772;BME280;59606;52.138;5.424;2023-02-11T02:57:40;103491.03;;;5.56;98.76
71772;BME280;59606;52.138;5.424;2023-02-11T03:08:19;103472.13;;;5.57;99.36
71772;BME280;59606;52.138;5.424;2023-02-11T03:10:50;103470.38;;;5.58;99.38
71772;BME280;59606;52.138;5.424;2023-02-11T03:13:21;103472.13;;;5.57;99.40
71772;BME280;59606;52.138;5.424;2023-02-11T03:15:50;103460.91;;;5.57;99.04
71772;BME280;59606;52.138;5.424;2023-02-11T03:18:21;103461.75;;;5.56;99.48
71772;BME280;59606;52.138;5.424;2023-02-11T03:20:52;103449.69;;;5.55;99.01
71772;BME280;59606;52.138;5.424;2023-02-11T03:23:29;103456.53;;;5.53;99.31
71772;BME280;59606;52.138;5.424;2023-02-11T03:26:22;103446.19;;;5.51;99.33
71772;BME280;59606;52.138;5.424;2023-02-11T03:29:01;103442.75;;;5.51;99.86
71772;BME280;59606;52.138;5.424;2023-02-11T03:31:41;103448.78;;;5.51;99.73
71772;BME280;59606;52.138;5.424;2023-02-11T03:34:34;103447.06;;;5.50;100.00
71772;BME280;59606;52.138;5.424;2023-02-11T03:39:55;103446.16;;;5.48;100.00
71772;BME280;59606;52.138;5.424;2023-02-11T03:42:25;103442.72;;;5.48;100.00
71772;BME280;59606;52.138;5.424;2023-02-11T03:45:21;103436.66;;;5.46;100.00
71772;BME280;59606;52.138;5.424;2023-02-11T03:47:53;103434.06;;;5.44;100.00
71772;BME280;59606;52.138;5.424;2023-02-11T03:50:21;103430.59;;;5.42;100.00
71772;BME280;59606;52.138;5.424;2023-02-11T03:52:48;103428.84;;;5.39;100.00
71772;BME280;59606;52.138;5.424;2023-02-11T03:55:18;103436.56;;;5.36;100.00
71772;BME280;59606;52.138;5.424;2023-02-11T03:57:46;103441.75;;;5.33;100.00
71772;BME280;59606;52.138;5.424;2023-02-11T04:00:14;103449.50;;;5.33;100.00
71772;BME280;59606;52.138;5.424;2023-02-11T04:02:41;103454.63;;;5.32;100.00
71772;BME280;59606;52.138;5.424;2023-02-11T04:05:10;103459.81;;;5.32;100.00
71772;BME280;59606;52.138;5.424;2023-02-11T04:07:37;103459.84;;;5.35;100.00
71772;BME280;59606;52.138;5.424;2023-02-11T04:10:04;103459.00;;;5.37;100.00
71772;BME280;59606;52.138;5.424;2023-02-11T04:12:30;103460.75;;;5.40;100.00
71772;BME280;59606;52.138;5.424;2023-02-11T04:14:57;103464.22;;;5.40;100.00
71772;BME280;59606;52.138;5.424;2023-02-11T04:17:23;103445.25;;;5.43;100.00
71772;BME280;59606;52.138;5.424;2023-02-11T04:19:50;103462.50;;;5.44;100.00
71772;BME280;59606;52.138;5.424;2023-02-11T04:22:16;103455.63;;;5.46;100.00
71772;BME280;59606;52.138;5.424;2023-02-11T04:24:43;103457.38;;;5.47;100.00
71772;BME280;59606;52.138;5.424;2023-02-11T04:27:09;103465.13;;;5.47;100.00
71772;BME280;59606;52.138;5.424;2023-02-11T04:29:36;103466.84;;;5.50;100.00
71772;BME280;59606;52.138;5.424;2023-02-11T04:32:03;103472.91;;;5.50;100.00
71772;BME280;59606;52.138;5.424;2023-02-11T04:34:29;103475.50;;;5.52;100.00
71772;BME280;59606;52.138;5.424;2023-02-11T04:36:56;103474.63;;;5.53;100.00
71772;BME280;59606;52.138;5.424;2023-02-11T04:39:23;103468.63;;;5.54;100.00
71772;BME280;59606;52.138;5.424;2023-02-11T04:41:49;103465.19;;;5.56;100.00
71772;BME280;59606;52.138;5.424;2023-02-11T04:44:16;103468.66;;;5.57;100.00
71772;BME280;59606;52.138;5.424;2023-02-11T04:46:42;103474.69;;;5.59;100.00
71772;BME280;59606;52.138;5.424;2023-02-11T04:49:12;103469.56;;;5.60;100.00
71772;BME280;59606;52.138;5.424;2023-02-11T04:51:39;103473.00;;;5.61;100.00
71772;BME280;59606;52.138;5.424;2023-02-11T04:54:06;103467.81;;;5.62;100.00
71772;BME280;59606;52.138;5.424;2023-02-11T04:56:33;103465.25;;;5.62;100.00
71772;BME280;59606;52.138;5.424;2023-02-11T04:58:59;103467.84;;;5.64;100.00
71772;BME280;59606;52.138;5.424;2023-02-11T05:01:26;103469.59;;;5.65;100.00
71772;BME280;59606;52.138;5.424;2023-02-11T05:03:53;103462.69;;;5.65;100.00
71772;BME280;59606;52.138;5.424;2023-02-11T05:06:19;103467.84;;;5.65;100.00
71772;BME280;59606;52.138;5.424;2023-02-11T05:08:46;103467.88;;;5.67;100.00
71772;BME280;59606;52.138;5.424;2023-02-11T05:11:21;103467.88;;;5.67;100.00
71772;BME280;59606;52.138;5.424;2023-02-11T05:13:48;103470.47;;;5.68;100.00
71772;BME280;59606;52.138;5.424;2023-02-11T05:16:15;103468.75;;;5.69;100.00
71772;BME280;59606;52.138;5.424;2023-02-11T05:18:43;103461.00;;;5.71;100.00
71772;BME280;59606;52.138;5.424;2023-02-11T05:21:16;103464.47;;;5.71;100.00
71772;BME280;59606;52.138;5.424;2023-02-11T05:23:44;103473.09;;;5.72;100.00
71772;BME280;59606;52.138;5.424;2023-02-11T05:26:11;103469.63;;;5.73;100.00
71772;BME280;59606;52.138;5.424;2023-02-11T05:28:38;103467.91;;;5.73;100.00
71772;BME280;59606;52.138;5.424;2023-02-11T05:31:04;103477.41;;;5.76;100.00
71772;BME280;59606;52.138;5.424;2023-02-11T05:33:31;103467.06;;;5.76;100.00
71772;BME280;59606;52.138;5.424;2023-02-11T05:36:02;103471.38;;;5.77;100.00
71772;BME280;59606;52.138;5.424;2023-02-11T05:38:29;103464.50;;;5.79;100.00
71772;BME280;59606;52.138;5.424;2023-02-11T05:40:56;103461.94;;;5.79;100.00
71772;BME280;59606;52.138;5.424;2023-02-11T05:43:22;103460.19;;;5.79;100.00
71772;BME280;59606;52.138;5.424;2023-02-11T05:45:49;103457.63;;;5.81;100.00
71772;BME280;59606;52.138;5.424;2023-02-11T05:48:16;103460.22;;;5.81;100.00
71772;BME280;59606;52.138;5.424;2023-02-11T05:50:43;103462.81;;;5.82;100.00
71772;BME280;59606;52.138;5.424;2023-02-11T05:53:10;103465.44;;;5.84;100.00
71772;BME280;59606;52.138;5.424;2023-02-11T05:55:37;103474.91;;;5.85;100.00
71772;BME280;59606;52.138;5.424;2023-02-11T05:58:05;103465.41;;;5.85;100.00
71772;BME280;59606;52.138;5.424;2023-02-11T06:00:33;103471.47;;;5.87;100.00
71772;BME280;59606;52.138;5.424;2023-02-11T06:03:00;103466.31;;;5.87;100.00
71772;BME280;59606;52.138;5.424;2023-02-11T06:05:27;103467.16;;;5.86;100.00
71772;BME280;59606;52.138;5.424;2023-02-11T06:07:53;103474.94;;;5.88;100.00
71772;BME280;59606;52.138;5.424;2023-02-11T06:10:20;103477.50;;;5.89;100.00
71772;BME280;59606;52.138;5.424;2023-02-11T06:12:46;103481.84;;;5.89;100.00
71772;BME280;59606;52.138;5.424;2023-02-11T06:15:13;103481.00;;;5.91;100.00
71772;BME280;59606;52.138;5.424;2023-02-11T06:17:39;103491.34;;;5.91;100.00
71772;BME280;59606;52.138;5.424;2023-02-11T06:20:07;103476.69;;;5.92;100.00
71772;BME280;59606;52.138;5.424;2023-02-11T06:22:33;103483.63;;;5.93;100.00
71772;BME280;59606;52.138;5.424;2023-02-11T06:25:00;103485.38;;;5.94;100.00
71772;BME280;59606;52.138;5.424;2023-02-11T06:27:28;103480.19;;;5.94;100.00
71772;BME280;59606;52.138;5.424;2023-02-11T06:29:55;103472.44;;;5.96;100.00
71772;BME280;59606;52.138;5.424;2023-02-11T06:32:21;103478.47;;;5.99;100.00
71772;BME280;59606;52.138;5.424;2023-02-11T06:35:07;103479.38;;;6.01;100.00
71772;BME280;59606;52.138;5.424;2023-02-11T06:37:37;103472.47;;;6.02;100.00
71772;BME280;59606;52.138;5.424;2023-02-11T06:40:04;103475.91;;;6.02;100.00
71772;BME280;59606;52.138;5.424;2023-02-11T06:42:30;103477.63;;;6.03;100.00
71772;BME280;59606;52.138;5.424;2023-02-11T06:44:57;103475.94;;;6.04;100.00
71772;BME280;59606;52.138;5.424;2023-02-11T06:47:24;103463.00;;;6.05;100.00
71772;BME280;59606;52.138;5.424;2023-02-11T06:49:50;103469.91;;;6.06;100.00
71772;BME280;59606;52.138;5.424;2023-02-11T06:52:17;103466.47;;;6.07;100.00
71772;BME280;59606;52.138;5.424;2023-02-11T06:54:43;103467.34;;;6.09;100.00
71772;BME280;59606;52.138;5.424;2023-02-11T06:57:10;103470.78;;;6.10;100.00
71772;BME280;59606;52.138;5.424;2023-02-11T06:59:36;103479.44;;;6.10;100.00
71772;BME280;59606;52.138;5.424;2023-02-11T07:02:03;103476.84;;;6.12;100.00
71772;BME280;59606;52.138;5.424;2023-02-11T07:04:29;103481.19;;;6.14;100.00
71772;BME280;59606;52.138;5.424;2023-02-11T07:06:56;103486.38;;;6.14;100.00
71772;BME280;59606;52.138;5.424;2023-02-11T07:09:22;103488.97;;;6.18;100.00
71772;BME280;59606;52.138;5.424;2023-02-11T07:11:49;103487.25;;;6.18;100.00
71772;BME280;59606;52.138;5.424;2023-02-11T07:14:15;103488.97;;;6.19;100.00
71772;BME280;59606;52.138;5.424;2023-02-11T07:16:42;103497.63;;;6.21;100.00
71772;BME280;59606;52.138;5.424;2023-02-11T07:19:08;103492.44;;;6.23;100.00
71772;BME280;59606;52.138;5.424;2023-02-11T07:21:35;103493.31;;;6.23;100.00
71772;BME280;59606;52.138;5.424;2023-02-11T07:24:05;103504.53;;;6.25;100.00
71772;BME280;59606;52.138;5.424;2023-02-11T07:26:36;103501.97;;;6.25;100.00
71772;BME280;59606;52.138;5.424;2023-02-11T07:29:02;103509.75;;;6.28;100.00
71772;BME280;59606;52.138;5.424;2023-02-11T07:31:29;103514.94;;;6.31;100.00
71772;BME280;59606;52.138;5.424;2023-02-11T07:33:58;103512.34;;;6.33;100.00
71772;BME280;59606;52.138;5.424;2023-02-11T07:36:26;103514.97;;;6.34;100.00
71772;BME280;59606;52.138;5.424;2023-02-11T07:38:53;103514.09;;;6.37;100.00
71772;BME280;59606;52.138;5.424;2023-02-11T07:41:21;103516.72;;;6.38;100.00
71772;BME280;59606;52.138;5.424;2023-02-11T07:43:49;103527.09;;;6.42;100.00
71772;BME280;59606;52.138;5.424;2023-02-11T07:46:24;103527.94;;;6.42;100.00
71772;BME280;59606;52.138;5.424;2023-02-11T07:48:52;103527.97;;;6.45;100.00
71772;BME280;59606;52.138;5.424;2023-02-11T07:51:24;103527.09;;;6.46;100.00
71772;BME280;59606;52.138;5.424;2023-02-11T07:53:51;103518.50;;;6.47;100.00
71772;BME280;59606;52.138;5.424;2023-02-11T07:56:19;103519.34;;;6.49;100.00
71772;BME280;59606;52.138;5.424;2023-02-11T07:58:46;103514.19;;;6.51;100.00
71772;BME280;59606;52.138;5.424;2023-02-11T08:01:18;103510.72;;;6.52;100.00
71772;BME280;59606;52.138;5.424;2023-02-11T08:03:47;103511.63;;;6.54;100.00
71772;BME280;59606;52.138;5.424;2023-02-11T08:06:18;103526.28;;;6.56;100.00
71772;BME280;59606;52.138;5.424;2023-02-11T08:08:46;103521.13;;;6.58;100.00
71772;BME280;59606;52.138;5.424;2023-02-11T08:11:24;103515.97;;;6.61;100.00
71772;BME280;59606;52.138;5.424;2023-02-11T08:13:52;103522.88;;;6.64;100.00
71772;BME280;59606;52.138;5.424;2023-02-11T08:16:25;103520.31;;;6.65;100.00
71772;BME280;59606;52.138;5.424;2023-02-11T08:18:52;103518.56;;;6.67;100.00
71772;BME280;59606;52.138;5.424;2023-02-11T08:21:20;103526.34;;;6.69;100.00
71772;BME280;59606;52.138;5.424;2023-02-11T08:23:47;103528.09;;;6.70;100.00
71772;BME280;59606;52.138;5.424;2023-02-11T08:26:20;103519.47;;;6.71;100.00
71772;BME280;59606;52.138;5.424;2023-02-11T08:28:49;103525.50;;;6.73;100.00
71772;BME280;59606;52.138;5.424;2023-02-11T08:31:22;103526.38;;;6.73;100.00
71772;BME280;59606;52.138;5.424;2023-02-11T08:33:49;103522.06;;;6.72;100.00
71772;BME280;59606;52.138;5.424;2023-02-11T08:36:19;103530.69;;;6.73;100.00
71772;BME280;59606;52.138;5.424;2023-02-11T08:38:46;103534.13;;;6.73;100.00
71772;BME280;59606;52.138;5.424;2023-02-11T08:41:13;103541.94;;;6.75;100.00
71772;BME280;59606;52.138;5.424;2023-02-11T08:43:41;103545.38;;;6.77;100.00
71772;BME280;59606;52.138;5.424;2023-02-11T08:46:11;103542.81;;;6.78;100.00
71772;BME280;59606;52.138;5.424;2023-02-11T08:48:38;103541.09;;;6.82;100.00
71772;BME280;59606;52.138;5.424;2023-02-11T08:51:12;103535.06;;;6.84;100.00
71772;BME280;59606;52.138;5.424;2023-02-11T08:53:39;103541.13;;;6.88;100.00
71772;BME280;59606;52.138;5.424;2023-02-11T08:56:05;103539.41;;;6.90;100.00
71772;BME280;59606;52.138;5.424;2023-02-11T08:58:32;103547.19;;;6.92;100.00
71772;BME280;59606;52.138;5.424;2023-02-11T09:00:59;103554.13;;;6.96;100.00
71772;BME280;59606;52.138;5.424;2023-02-11T09:03:25;103553.25;;;7.00;100.00
71772;BME280;59606;52.138;5.424;2023-02-11T09:05:52;103550.69;;;7.04;100.00
71772;BME280;59606;52.138;5.424;2023-02-11T09:08:19;103559.34;;;7.09;100.00
71772;BME280;59606;52.138;5.424;2023-02-11T09:10:46;103558.50;;;7.14;100.00
71772;BME280;59606;52.138;5.424;2023-02-11T09:13:12;103568.03;;;7.18;100.00
71772;BME280;59606;52.138;5.424;2023-02-11T09:15:39;103573.22;;;7.22;100.00
71772;BME280;59606;52.138;5.424;2023-02-11T09:18:05;103562.88;;;7.25;100.00
71772;BME280;59606;52.138;5.424;2023-02-11T09:20:32;103569.78;;;7.28;100.00
71772;BME280;59606;52.138;5.424;2023-02-11T09:22:59;103575.84;;;7.33;100.00
71772;BME280;59606;52.138;5.424;2023-02-11T09:25:26;103576.72;;;7.38;100.00
71772;BME280;59606;52.138;5.424;2023-02-11T09:27:52;103570.66;;;7.41;100.00
71772;BME280;59606;52.138;5.424;2023-02-11T09:30:19;103575.88;;;7.45;100.00
71772;BME280;59606;52.138;5.424;2023-02-11T09:32:46;103580.22;;;7.48;100.00
71772;BME280;59606;52.138;5.424;2023-02-11T09:35:12;103578.50;;;7.51;100.00
71772;BME280;59606;52.138;5.424;2023-02-11T09:37:39;103581.09;;;7.54;100.00
71772;BME280;59606;52.138;5.424;2023-02-11T09:40:06;103584.53;;;7.56;100.00
71772;BME280;59606;52.138;5.424;2023-02-11T09:42:47;103587.16;;;7.60;100.00
71772;BME280;59606;52.138;5.424;2023-02-11T09:45:21;103595.78;;;7.63;100.00
71772;BME280;59606;52.138;5.424;2023-02-11T09:48:09;103586.31;;;7.68;100.00
71772;BME280;59606;52.138;5.424;2023-02-11T09:50:40;103591.50;;;7.73;100.00
71772;BME280;59606;52.138;5.424;2023-02-11T09:55:50;103600.16;;;7.79;99.90
71772;BME280;59606;52.138;5.424;2023-02-11T09:58:29;103590.63;;;7.80;100.00
71772;BME280;59606;52.138;5.424;2023-02-11T10:03:40;103601.88;;;7.87;99.74
71772;BME280;59606;52.138;5.424;2023-02-11T10:09:20;103609.69;;;7.93;99.56
71772;BME280;59606;52.138;5.424;2023-02-11T10:23:20;103627.00;;;8.23;98.40
71772;BME280;59606;52.138;5.424;2023-02-11T10:25:49;103625.25;;;8.31;98.47
71772;BME280;59606;52.138;5.424;2023-02-11T10:28:21;103633.94;;;8.41;97.55
71772;BME280;59606;52.138;5.424;2023-02-11T10:31:08;103636.53;;;8.53;98.03
71772;BME280;59606;52.138;5.424;2023-02-11T10:33:44;103633.06;;;8.62;97.48
71772;BME280;59606;52.138;5.424;2023-02-11T10:36:13;103639.09;;;8.68;96.38
71772;BME280;59606;52.138;5.424;2023-02-11T10:38:40;103637.38;;;8.69;95.58
71772;BME280;59606;52.138;5.424;2023-02-11T10:41:10;103639.09;;;8.71;95.76
71772;BME280;59606;52.138;5.424;2023-02-11T10:43:41;103647.75;;;8.75;95.65
71772;BME280;59606;52.138;5.424;2023-02-11T10:46:15;103642.56;;;8.77;95.91
71772;BME280;59606;52.138;5.424;2023-02-11T10:48:48;103646.03;;;8.74;95.27
71772;BME280;59606;52.138;5.424;2023-02-11T10:51:29;103641.72;;;8.73;95.19
71772;BME280;59606;52.138;5.424;2023-02-11T10:56:35;103641.69;;;8.68;95.31
71772;BME280;59606;52.138;5.424;2023-02-11T10:59:26;103646.88;;;8.71;94.69
71772;BME280;59606;52.138;5.424;2023-02-11T11:01:56;103644.28;;;8.74;94.15
71772;BME280;59606;52.138;5.424;2023-02-11T11:10:04;103647.72;;;9.00;95.02
71772;BME280;59606;52.138;5.424;2023-02-11T11:12:35;103656.34;;;9.11;94.05
71772;BME280;59606;52.138;5.424;2023-02-11T11:15:18;103654.53;;;9.22;93.32
71772;BME280;59606;52.138;5.424;2023-02-11T11:18:07;103664.09;;;9.29;92.82
71772;BME280;59606;52.138;5.424;2023-02-11T11:21:21;103662.31;;;9.37;92.79
71772;BME280;59606;52.138;5.424;2023-02-11T11:23:54;103660.53;;;9.44;91.73
71772;BME280;59606;52.138;5.424;2023-02-11T11:26:22;103675.28;;;9.47;92.02
71772;BME280;59606;52.138;5.424;2023-02-11T11:31:29;103677.03;;;9.43;91.71
71772;BME280;59606;52.138;5.424;2023-02-11T11:33:57;103676.13;;;9.50;91.60
71772;BME280;59606;52.138;5.424;2023-02-11T11:36:34;103675.22;;;9.60;91.32
71772;BME280;59606;52.138;5.424;2023-02-11T11:39:19;103683.81;;;9.72;91.41
71772;BME280;59606;52.138;5.424;2023-02-11T11:41:58;103682.06;;;9.80;90.28
71772;BME280;59606;52.138;5.424;2023-02-11T11:44:30;103684.69;;;9.74;89.65
71772;BME280;59606;52.138;5.424;2023-02-11T11:55:04;103661.28;;;9.67;89.19
71772;BME280;59606;52.138;5.424;2023-02-11T11:57:36;103656.09;;;9.66;89.19
71772;BME280;59606;52.138;5.424;2023-02-11T12:00:05;103656.13;;;9.63;89.04
71772;BME280;59606;52.138;5.424;2023-02-11T12:05:36;103656.09;;;9.66;89.46
71772;BME280;59606;52.138;5.424;2023-02-11T12:21:59;103653.31;;;9.92;88.05
71772;BME280;59606;52.138;5.424;2023-02-11T12:24:48;103649.81;;;9.98;87.61
71772;BME280;59606;52.138;5.424;2023-02-11T12:30:53;103643.59;;;10.17;86.76
71772;BME280;59606;52.138;5.424;2023-02-11T12:36:16;103640.91;;;10.28;84.77
71772;BME280;59606;52.138;5.424;2023-02-11T12:53:33;103637.13;;;10.61;82.31
71772;BME280;59606;52.138;5.424;2023-02-11T12:58:56;103648.34;;;10.69;82.12
71772;BME280;59606;52.138;5.424;2023-02-11T13:01:35;103638.88;;;10.59;81.68
71772;BME280;59606;52.138;5.424;2023-02-11T13:04:08;103639.81;;;10.56;82.45
71772;BME280;59606;52.138;5.424;2023-02-11T13:06:45;103631.97;;;10.58;82.27
71772;BME280;59606;52.138;5.424;2023-02-11T13:09:18;103631.94;;;10.59;82.15
71772;BME280;59606;52.138;5.424;2023-02-11T13:11:50;103642.28;;;10.70;82.51
71772;BME280;59606;52.138;5.424;2023-02-11T13:14:32;103638.75;;;10.74;81.51
71772;BME280;59606;52.138;5.424;2023-02-11T13:17:03;103653.47;;;10.78;81.46
71772;BME280;59606;52.138;5.424;2023-02-11T13:19:42;103644.78;;;10.78;81.81
71772;BME280;59606;52.138;5.424;2023-02-11T13:22:16;103638.69;;;10.80;81.29
71772;BME280;59606;52.138;5.424;2023-02-11T13:27:44;103638.56;;;10.91;81.74
71772;BME280;59606;52.138;5.424;2023-02-11T13:35:38;103622.97;;;10.85;80.78
71772;BME280;59606;52.138;5.424;2023-02-11T13:38:16;103619.44;;;10.91;81.12
71772;BME280;59606;52.138;5.424;2023-02-11T13:40:44;103627.25;;;10.94;80.85
71772;BME280;59606;52.138;5.424;2023-02-11T13:43:23;103613.34;;;10.92;80.49
71772;BME280;59606;52.138;5.424;2023-02-11T13:45:51;103631.66;;;10.85;80.65
71772;BME280;59606;52.138;5.424;2023-02-11T13:48:49;103622.06;;;10.89;81.31
71772;BME280;59606;52.138;5.424;2023-02-11T13:51:36;103623.81;;;10.89;80.92
71772;BME280;59606;52.138;5.424;2023-02-11T13:54:04;103626.47;;;10.84;80.87
71772;BME280;59606;52.138;5.424;2023-02-11T13:56:39;103623.00;;;10.82;80.73
71772;BME280;59606;52.138;5.424;2023-02-11T14:05:08;103630.97;;;10.68;81.41
71772;BME280;59606;52.138;5.424;2023-02-11T14:16:15;103631.97;;;10.56;82.07
71772;BME280;59606;52.138;5.424;2023-02-11T14:19:00;103637.19;;;10.55;81.83
71772;BME280;59606;52.138;5.424;2023-02-11T14:26:46;103635.47;;;10.54;82.22
71772;BME280;59606;52.138;5.424;2023-02-11T14:29:44;103631.97;;;10.58;82.10
71772;BME280;59606;52.138;5.424;2023-02-11T14:32:31;103635.44;;;10.60;81.69
71772;BME280;59606;52.138;5.424;2023-02-11T14:38:00;103635.38;;;10.65;81.72
71772;BME280;59606;52.138;5.424;2023-02-11T14:43:15;103643.13;;;10.71;81.95
71772;BME280;59606;52.138;5.424;2023-02-11T14:45:44;103647.47;;;10.72;81.15
71772;BME280;59606;52.138;5.424;2023-02-11T14:48:15;103643.13;;;10.69;80.77
71772;BME280;59606;52.138;5.424;2023-02-11T14:50:45;103641.41;;;10.70;81.36
71772;BME280;59606;52.138;5.424;2023-02-11T14:53:22;103640.53;;;10.71;81.64
71772;BME280;59606;52.138;5.424;2023-02-11T14:55:51;103646.66;;;10.67;81.08
71772;BME280;59606;52.138;5.424;2023-02-11T15:06:22;103648.44;;;10.63;81.42
71772;BME280;59606;52.138;5.424;2023-02-11T15:08:51;103651.91;;;10.59;81.49
71772;BME280;59606;52.138;5.424;2023-02-11T15:11:20;103649.34;;;10.56;81.61
71772;BME280;59606;52.138;5.424;2023-02-11T15:13:48;103645.03;;;10.56;82.00
71772;BME280;59606;52.138;5.424;2023-02-11T15:16:18;103653.72;;;10.54;82.26
71772;BME280;59606;52.138;5.424;2023-02-11T15:18:49;103656.34;;;10.52;82.42
71772;BME280;59606;52.138;5.424;2023-02-11T15:21:26;103661.59;;;10.48;82.36
71772;BME280;59606;52.138;5.424;2023-02-11T15:24:04;103669.47;;;10.42;82.18
71772;BME280;59606;52.138;5.424;2023-02-11T15:26:32;103672.97;;;10.36;82.23
71772;BME280;59606;52.138;5.424;2023-02-11T15:28:58;103672.13;;;10.32;82.64
71772;BME280;59606;52.138;5.424;2023-02-11T15:31:26;103679.97;;;10.29;82.41
71772;BME280;59606;52.138;5.424;2023-02-11T15:33:53;103673.06;;;10.19;82.69
71772;BME280;59606;52.138;5.424;2023-02-11T15:36:22;103663.59;;;10.13;82.55
71772;BME280;59606;52.138;5.424;2023-02-11T15:39:28;103681.84;;;10.09;82.69
71772;BME280;59606;52.138;5.424;2023-02-11T15:42:20;103678.41;;;10.02;83.07